Date,TemperatureHighF,TemperatureAvgF,TemperatureLowF,DewpointHighF,DewpointAvgF,DewpointLowF,HumidityHigh,HumidityAvg,HumidityLow,PressureMaxIn,PressureMinIn,WindSpeedMaxMPH,WindSpeedAvgMPH,GustSpeedMaxMPH,PrecipitationSumIn
2013-1-1,37,34,30,33,30,26,88,85,82,30.13,30.01,13,2,13,0.08
2013-1-2,35,28,23,27,22,17,85,77,63,30.23,30.11,10,2,10,0.00
2013-1-3,42,28,18,27,20,14,82,71,50,30.38,30.18,15,2,15,0.00
2013-1-4,41,30,22,30,22,17,83,73,57,30.40,30.33,18,2,18,0.00
2013-1-5,50,34,22,35,25,17,84,70,52,30.37,30.18,13,2,13,0.00
2013-1-6,42,36,26,33,27,19,75,70,66,30.37,30.10,21,6,21,0.00
2013-1-7,45,31,21,30,22,16,84,70,51,30.43,30.21,6,1,7,0.00
2013-1-8,57,40,27,39,30,21,79,67,49,30.31,30.20,17,2,17,0.00
2013-1-9,59,48,42,48,40,32,81,73,63,30.47,30.21,7,1,7,0.00
2013-1-10,57,48,43,54,43,36,90,82,71,30.46,30.00,15,3,15,0.30
2013-1-11,69,59,54,55,52,48,88,76,55,30.01,29.85,22,6,24,0.51
2013-1-12,66,61,54,62,57,49,90,88,83,30.03,29.80,19,4,20,0.02
2013-1-13,65,52,31,59,48,28,90,86,79,30.18,29.79,21,6,23,1.86
2013-1-14,33,28,25,28,23,20,87,78,70,30.42,30.18,17,5,17,0.00
2013-1-15,32,28,23,27,23,19,87,82,75,30.29,30.03,19,4,20,0.00
2013-1-16,34,31,30,30,28,27,88,87,84,30.12,29.98,15,2,15,0.00
2013-1-17,46,34,29,35,28,23,87,78,62,30.39,30.08,15,2,15,0.16
2013-1-18,47,34,22,32,25,17,84,69,53,30.51,30.29,12,4,13,0.00
2013-1-19,57,44,33,37,30,24,72,58,43,30.30,30.02,22,8,23,0.00
2013-1-20,44,38,27,31,22,12,74,53,35,30.24,30.05,21,4,22,0.00
2013-1-21,31,25,17,17,10,1,70,53,36,30.27,30.13,22,6,26,0.00
2013-1-22,25,18,12,4,1,-2,57,48,38,30.40,30.25,13,4,14,0.00
2013-1-23,43,27,13,21,12,2,66,53,39,30.34,30.08,17,3,17,0.00
2013-1-24,32,26,20,19,8,1,62,47,30,30.52,30.14,22,6,25,0.00
2013-1-25,31,26,21,24,17,4,81,70,46,30.35,30.05,10,3,10,0.00
2013-1-26,38,29,20,29,22,16,85,75,62,30.37,30.17,6,1,6,0.04
2013-1-27,45,34,23,37,28,18,85,77,62,30.38,30.18,13,2,13,0.10
2013-1-28,54,49,42,49,44,36,84,81,75,30.18,30.07,20,6,23,0.14
2013-1-29,64,58,52,57,53,47,87,82,78,30.11,29.60,22,7,26,0.02
2013-1-30,67,52,32,59,46,24,89,81,71,29.74,29.38,24,10,28,0.88
2013-1-31,38,31,20,27,22,10,84,69,56,30.11,29.74,22,10,24,0.02